Time;durP1;ratioP1;P1;durP2;ratioP2;P2;SDS_P1;SDS_P2;PMS_P1;PMS_P2;Temp;Humidity;BMP_temperature;BMP_pressure;BME280_temperature;BME280_humidity;BME280_pressure;Samples;Min_cycle;Max_cycle;Signal;HPM_P1;HPM_P2
2022/07/07 00:00:10;;;;;;;1110.07;999.90;;;;;;;18.39;43.93;101392.50;693657;28;21289;-63
2022/07/07 00:00:33;;;;;;;1108.03;999.90;;;;;;;18.35;43.73;101383.88;692004;28;69992;-64
2022/07/07 00:00:54;;;;;;;1109.72;999.90;;;;;;;18.36;43.58;101389.13;693809;28;46192;-61
2022/07/07 00:01:15;;;;;;;1110.55;999.90;;;;;;;18.35;43.49;101390.22;692992;28;44382;-64
2022/07/07 00:01:36;;;;;;;1109.75;999.90;;;;;;;18.35;43.39;101389.34;693329;28;23478;-65
2022/07/07 00:01:57;;;;;;;1110.57;999.90;;;;;;;18.32;43.88;101390.63;693884;28;22398;-64
2022/07/07 00:02:20;;;;;;;1110.68;999.90;;;;;;;18.31;43.60;101388.94;693568;28;21545;-64
2022/07/07 00:02:41;;;;;;;1107.45;999.90;;;;;;;18.30;43.40;101389.97;693011;28;44368;-65
2022/07/07 00:03:02;;;;;;;1112.55;999.90;;;;;;;18.30;43.82;101389.16;693300;28;23707;-64
2022/07/07 00:03:23;;;;;;;1109.22;999.90;;;;;;;18.29;43.38;101388.31;692723;28;46502;-64
2022/07/07 00:03:45;;;;;;;1109.22;999.90;;;;;;;18.27;43.93;101384.94;693965;28;22412;-65
2022/07/07 00:04:08;;;;;;;1106.40;999.90;;;;;;;18.28;43.91;101383.91;694543;28;46270;-64
2022/07/07 00:04:29;;;;;;;1111.57;999.90;;;;;;;18.27;43.81;101384.09;692895;28;46318;-63
2022/07/07 00:04:50;;;;;;;1111.22;999.90;;;;;;;18.25;43.85;101378.03;694099;28;22406;-63
2022/07/07 00:05:12;;;;;;;1112.93;999.90;;;;;;;18.26;43.74;101382.41;693060;28;44406;-64
2022/07/07 00:05:38;;;;;;;1112.78;999.90;;;;;;;18.26;44.08;101386.00;692730;28;46504;-63
2022/07/07 00:05:59;;;;;;;1106.05;999.90;;;;;;;18.25;43.71;101387.06;690794;28;113564;-64
2022/07/07 00:06:26;;;;;;;1107.15;999.90;;;;;;;18.24;43.79;101379.06;692603;28;44287;-64
2022/07/07 00:06:48;;;;;;;1108.57;999.90;;;;;;;18.25;44.11;101381.59;689547;28;159532;-65
2022/07/07 00:07:11;;;;;;;1111.63;999.90;;;;;;;18.25;44.08;101381.59;690897;28;68453;-63
2022/07/07 00:07:32;;;;;;;1112.10;999.90;;;;;;;18.23;43.94;101380.97;693092;28;44376;-63
2022/07/07 00:07:53;;;;;;;1110.50;999.90;;;;;;;18.23;43.93;101382.84;694007;28;23501;-64
2022/07/07 00:08:16;;;;;;;1111.85;999.90;;;;;;;18.27;43.75;101378.63;692786;28;44394;-64
2022/07/07 00:08:37;;;;;;;1108.60;999.90;;;;;;;18.27;43.89;101376.72;693024;28;45225;-64
2022/07/07 00:08:58;;;;;;;1107.20;999.90;;;;;;;18.27;43.79;101370.44;694210;28;21505;-64
2022/07/07 00:09:20;;;;;;;1108.53;999.90;;;;;;;18.31;43.86;101380.72;693640;28;22438;-64
2022/07/07 00:09:41;;;;;;;1106.32;999.90;;;;;;;18.32;43.54;101376.97;693076;28;46315;-64
2022/07/07 00:10:04;;;;;;;1106.07;999.90;;;;;;;18.34;43.46;101380.31;694380;28;950;-64
2022/07/07 00:10:25;;;;;;;1108.68;999.90;;;;;;;18.34;43.47;101376.75;692086;28;67234;-64
2022/07/07 00:10:46;;;;;;;1110.05;999.90;;;;;;;18.34;43.37;101377.56;694186;28;21123;-63
2022/07/07 00:11:08;;;;;;;1109.72;999.90;;;;;;;18.34;43.37;101377.56;693850;28;22180;-64
2022/07/07 00:11:29;;;;;;;1110.53;999.90;;;;;;;18.34;43.41;101380.31;693656;28;43591;-64
2022/07/07 00:11:51;;;;;;;1107.30;999.90;;;;;;;18.34;43.31;101374.84;693232;28;45092;-64
2022/07/07 00:12:13;;;;;;;1107.68;999.90;;;;;;;18.35;43.60;101375.66;692571;28;45223;-64
2022/07/07 00:12:34;;;;;;;1106.43;999.90;;;;;;;18.33;43.51;101372.31;692939;28;46387;-64
2022/07/07 00:12:55;;;;;;;1106.75;999.90;;;;;;;18.35;43.55;101373.81;694163;28;22395;-64
2022/07/07 00:13:17;;;;;;;1108.05;999.90;;;;;;;18.35;43.38;101371.06;693942;28;22405;-63
2022/07/07 00:13:38;;;;;;;1110.85;999.90;;;;;;;18.33;43.38;101375.88;693574;28;45265;-64
2022/07/07 00:14:00;;;;;;;1111.13;999.90;;;;;;;18.32;43.38;101378.84;694548;28;23472;-63
2022/07/07 00:14:21;;;;;;;1112.32;999.90;;;;;;;18.32;43.75;101373.38;694558;28;23449;-63
2022/07/07 00:14:42;;;;;;;1109.45;999.90;;;;;;;18.31;43.43;101372.53;693752;28;45014;-64
2022/07/07 00:15:05;;;;;;;1108.88;999.90;;;;;;;18.25;43.56;101362.44;694287;28;22440;-63
2022/07/07 00:15:27;;;;;;;1109.97;999.90;;;;;;;18.31;43.37;101374.44;694606;28;1766;-64
2022/07/07 00:15:48;;;;;;;1114.25;999.90;;;;;;;18.31;43.68;101372.53;694414;28;22395;-63
2022/07/07 00:16:09;;;;;;;1110.90;999.90;;;;;;;18.29;43.75;101376.53;694311;28;21461;-64
2022/07/07 00:16:32;;;;;;;1113.32;999.90;;;;;;;18.28;43.73;101370.22;692623;28;44372;-64
2022/07/07 00:16:53;;;;;;;1111.43;999.90;;;;;;;18.28;43.38;101363.94;692370;28;69448;-63
2022/07/07 00:17:14;;;;;;;1110.63;999.90;;;;;;;18.26;43.72;101366.88;693958;28;22354;-63
2022/07/07 00:17:37;;;;;;;1109.30;999.90;;;;;;;18.27;43.49;101364.97;694190;28;22168;-63
2022/07/07 00:17:58;;;;;;;1110.97;999.90;;;;;;;18.27;43.67;101371.25;693735;28;44217;-64
2022/07/07 00:18:20;;;;;;;1115.80;999.90;;;;;;;18.26;43.50;101366.00;693659;28;46343;-64
2022/07/07 00:18:41;;;;;;;1112.68;999.90;;;;;;;18.27;43.61;101362.22;693998;28;23460;-64
2022/07/07 00:19:04;;;;;;;1112.85;999.90;;;;;;;18.26;43.77;101369.59;694646;28;22341;-64
2022/07/07 00:19:26;;;;;;;1108.78;999.90;;;;;;;18.27;43.44;101362.22;692732;28;69387;-64
2022/07/07 00:19:47;;;;;;;1108.05;999.90;;;;;;;18.28;43.57;101361.19;693547;28;45218;-64
2022/07/07 00:20:09;;;;;;;1110.80;999.90;;;;;;;18.27;43.53;101363.06;694262;28;22144;-64
2022/07/07 00:20:31;;;;;;;1109.50;999.90;;;;;;;18.27;43.59;101359.50;692258;28;69064;-64
2022/07/07 00:20:52;;;;;;;1109.88;999.90;;;;;;;18.25;43.62;101359.72;693463;28;46381;-64
2022/07/07 00:21:14;;;;;;;1110.28;999.90;;;;;;;18.24;43.48;101363.50;694970;28;5996;-64
2022/07/07 00:21:35;;;;;;;1111.53;999.90;;;;;;;18.26;43.48;101360.53;694258;28;23465;-64
2022/07/07 00:21:57;;;;;;;1107.53;999.90;;;;;;;18.20;43.77;101348.59;694592;28;23465;-64
2022/07/07 00:22:20;;;;;;;1116.50;999.90;;;;;;;18.27;43.59;101362.22;692969;28;45167;-64
2022/07/07 00:22:41;;;;;;;1109.80;999.90;;;;;;;18.27;43.41;101365.78;693070;28;67491;-64
2022/07/07 00:23:02;;;;;;;1109.85;999.90;;;;;;;18.27;43.81;101360.34;694069;28;23554;-64
2022/07/07 00:23:24;;;;;;;1107.70;999.90;;;;;;;18.27;43.81;101360.34;694158;28;23467;-64
2022/07/07 00:23:45;;;;;;;1110.83;999.90;;;;;;;18.28;43.40;101363.94;692814;28;67216;-63
2022/07/07 00:24:07;;;;;;;1112.38;999.90;;;;;;;18.26;43.37;101357.81;694057;28;46517;-64
2022/07/07 00:24:28;;;;;;;1115.03;999.90;;;;;;;18.27;43.57;101356.75;694626;28;21531;-62
2022/07/07 00:24:50;;;;;;;1112.25;999.90;;;;;;;18.28;43.17;101364.75;694510;28;22392;-64
2022/07/07 00:25:12;;;;;;;1110.32;999.90;;;;;;;18.29;43.31;101360.13;692978;28;44365;-64
2022/07/07 00:25:33;;;;;;;1110.25;999.90;;;;;;;18.30;43.50;101361.81;693782;28;44177;-64
2022/07/07 00:25:54;;;;;;;1113.53;999.90;;;;;;;18.31;43.14;101356.13;694766;28;23430;-63
2022/07/07 00:26:16;;;;;;;1113.03;999.90;;;;;;;18.32;43.23;101354.22;694031;28;24579;-63
2022/07/07 00:26:37;;;;;;;1111.57;999.90;;;;;;;18.31;43.21;101353.41;692107;28;66341;-64
2022/07/07 00:26:59;;;;;;;1110.70;999.90;;;;;;;18.31;43.41;101355.28;695848;28;22396;-63
2022/07/07 00:27:20;;;;;;;1112.97;999.90;;;;;;;18.30;43.48;101356.34;693514;28;40270;-63
2022/07/07 00:27:52;;;;;;;1111.88;999.90;;;;;;;18.29;43.30;101355.50;691882;28;98350;-63
2022/07/07 00:28:13;;;;;;;1109.00;999.90;;;;;;;18.27;43.59;101351.28;693365;28;45224;-64
2022/07/07 00:28:34;;;;;;;1108.60;999.90;;;;;;;18.26;43.51;101355.06;694129;28;23443;-63
2022/07/07 00:28:56;;;;;;;1107.80;999.90;;;;;;;18.26;43.28;101358.66;693963;28;22257;-64
2022/07/07 00:29:17;;;;;;;1108.53;999.90;;;;;;;18.27;43.54;101359.50;693221;28;44340;-64
2022/07/07 00:29:38;;;;;;;1112.70;999.90;;;;;;;18.24;43.58;101355.28;696187;28;23236;-64
2022/07/07 00:30:00;;;;;;;1112.07;999.90;;;;;;;18.27;43.29;101354.03;694138;28;22512;-64
2022/07/07 00:30:22;;;;;;;1108.43;999.90;;;;;;;18.27;43.65;101354.84;693415;28;44362;-64
2022/07/07 00:30:43;;;;;;;1108.25;999.90;;;;;;;18.26;43.44;101361.41;693700;28;46478;-65
2022/07/07 00:31:04;;;;;;;1106.45;999.90;;;;;;;18.24;43.70;101344.34;694147;28;22392;-64
2022/07/07 00:31:26;;;;;;;1106.95;999.90;;;;;;;18.23;43.56;101342.69;693211;28;22414;-64
2022/07/07 00:31:48;;;;;;;1106.72;999.90;;;;;;;18.25;43.49;101343.31;694447;28;22237;-64
2022/07/07 00:32:09;;;;;;;1110.30;999.90;;;;;;;18.27;43.45;101352.13;692823;28;46297;-64
2022/07/07 00:32:30;;;;;;;1108.47;999.90;;;;;;;18.27;43.72;101354.84;693785;28;46211;-67
2022/07/07 00:32:51;;;;;;;1107.38;999.90;;;;;;;18.28;43.75;101356.56;694594;28;23478;-64
2022/07/07 00:33:13;;;;;;;1113.95;999.90;;;;;;;18.29;43.52;101357.38;694139;28;21424;-64
2022/07/07 00:33:35;;;;;;;1109.97;999.90;;;;;;;18.26;43.71;101355.06;694027;28;23369;-64
2022/07/07 00:33:56;;;;;;;1107.25;999.90;;;;;;;18.28;43.33;101355.72;693369;28;46348;-64
2022/07/07 00:34:17;;;;;;;1106.05;999.90;;;;;;;18.26;43.53;101350.47;693583;28;44368;-64
2022/07/07 00:34:38;;;;;;;1110.97;999.90;;;;;;;18.26;43.46;101345.00;693967;28;23555;-64
2022/07/07 00:35:00;;;;;;;1109.55;999.90;;;;;;;18.25;43.25;101342.47;693371;28;23669;-64
2022/07/07 00:35:22;;;;;;;1110.00;999.90;;;;;;;18.26;43.51;101349.59;692858;28;47406;-64
2022/07/07 00:35:43;;;;;;;1110.97;999.90;;;;;;;18.25;43.58;101358.88;694158;28;22248;-65
2022/07/07 00:36:07;;;;;;;1110.77;999.90;;;;;;;18.24;43.60;101349.00;693381;28;46306;-64
2022/07/07 00:36:28;;;;;;;1108.43;999.90;;;;;;;18.25;43.55;101356.16;690840;28;92234;-64
2022/07/07 00:36:50;;;;;;;1111.70;999.90;;;;;;;18.24;43.58;101354.47;694629;28;21460;-64
2022/07/07 00:37:11;;;;;;;1111.68;999.90;;;;;;;18.22;43.48;101354.66;692278;28;44375;-64
2022/07/07 00:37:34;;;;;;;1109.60;999.90;;;;;;;18.21;43.39;101350.25;693276;28;43783;-64
2022/07/07 00:37:55;;;;;;;1106.63;999.90;;;;;;;18.20;43.62;101345.84;693857;28;45166;-64
2022/07/07 00:38:17;;;;;;;1107.20;999.90;;;;;;;18.18;43.64;101350.66;694068;28;22381;-64
2022/07/07 00:38:38;;;;;;;1108.50;999.90;;;;;;;18.17;43.43;101346.28;693982;28;46299;-63
2022/07/07 00:39:00;;;;;;;1107.50;999.90;;;;;;;18.17;43.97;101352.56;693411;28;44369;-64
2022/07/07 00:39:22;;;;;;;1107.70;999.90;;;;;;;18.16;43.65;101348.16;694081;28;22390;-64
2022/07/07 00:39:43;;;;;;;1106.95;999.90;;;;;;;18.14;43.63;101341.22;693794;28;46675;-64
2022/07/07 00:40:06;;;;;;;1108.65;999.90;;;;;;;18.15;43.40;101351.94;693249;28;44406;-62
2022/07/07 00:40:27;;;;;;;1110.50;999.90;;;;;;;18.14;43.90;101341.22;695011;28;1499;-64
2022/07/07 00:40:50;;;;;;;1106.93;999.90;;;;;;;18.18;43.60;101347.94;694286;28;22452;-63
2022/07/07 00:41:12;;;;;;;1107.50;999.90;;;;;;;18.16;43.96;101342.69;691717;28;92380;-64
2022/07/07 00:41:33;;;;;;;1111.97;999.90;;;;;;;18.17;44.05;101343.53;694908;28;22387;-64
2022/07/07 00:41:54;;;;;;;1111.72;999.90;;;;;;;18.17;43.83;101338.91;694326;28;22465;-64
2022/07/07 00:42:17;;;;;;;1111.10;999.90;;;;;;;18.17;43.73;101347.09;693937;28;21567;-64
2022/07/07 00:42:38;;;;;;;1108.00;999.90;;;;;;;18.15;43.77;101334.69;692481;28;68807;-64
2022/07/07 00:43:00;;;;;;;1111.90;999.90;;;;;;;18.17;43.64;101343.53;694685;28;22478;-64
2022/07/07 00:43:21;;;;;;;1114.82;999.90;;;;;;;18.17;43.61;101340.81;693336;28;46425;-64
2022/07/07 00:43:43;;;;;;;1110.05;999.90;;;;;;;18.15;43.59;101343.75;694038;28;22315;-64
2022/07/07 00:44:06;;;;;;;1109.03;999.90;;;;;;;18.15;43.98;101343.75;695049;28;46466;-63
2022/07/07 00:44:27;;;;;;;1108.18;999.90;;;;;;;18.12;43.90;101335.97;693606;28;36713;-63
2022/07/07 00:44:49;;;;;;;1105.88;999.90;;;;;;;18.13;44.02;101340.38;694619;28;22386;-63
2022/07/07 00:45:10;;;;;;;1107.97;999.90;;;;;;;18.12;44.00;101335.97;692154;28;46255;-64
2022/07/07 00:45:32;;;;;;;1108.38;999.90;;;;;;;18.14;44.12;101338.50;692804;28;46319;-63
2022/07/07 00:45:53;;;;;;;1107.78;999.90;;;;;;;18.14;44.20;101338.50;693407;28;45307;-63
2022/07/07 00:46:14;;;;;;;1106.95;999.90;;;;;;;18.12;44.02;101332.38;694134;28;23492;-64
2022/07/07 00:46:42;;;;;;;1107.22;999.90;;;;;;;18.13;44.02;101334.91;695603;28;4121;-64
2022/07/07 00:47:06;;;;;;;1110.60;999.90;;;;;;;18.14;43.93;101336.59;688294;28;137787;-64
2022/07/07 00:47:28;;;;;;;1110.47;999.90;;;;;;;18.15;43.92;101340.16;691555;28;92273;-63
2022/07/07 00:47:49;;;;;;;1110.07;999.90;;;;;;;18.13;44.01;101334.91;693927;28;46418;-64
2022/07/07 00:48:11;;;;;;;1111.28;999.90;;;;;;;18.14;43.93;101327.56;694156;28;22157;-64
2022/07/07 00:48:33;;;;;;;1109.25;999.90;;;;;;;18.15;43.99;101331.97;694082;28;20702;-62
2022/07/07 00:48:56;;;;;;;1107.97;999.90;;;;;;;18.14;44.08;101328.41;693243;28;67478;-64
2022/07/07 00:49:19;;;;;;;1110.20;999.90;;;;;;;18.14;43.66;101335.75;692717;28;67260;-64
2022/07/07 00:49:41;;;;;;;1108.93;999.90;;;;;;;18.14;43.82;101330.28;692662;28;69254;-64
2022/07/07 00:50:03;;;;;;;1108.38;999.90;;;;;;;18.15;43.84;101327.34;693398;28;46336;-64
2022/07/07 00:50:25;;;;;;;1111.57;999.90;;;;;;;18.12;43.96;101329.66;693979;28;22398;-63
2022/07/07 00:50:47;;;;;;;1108.97;999.90;;;;;;;18.14;43.89;101325.66;692919;28;70249;-64
2022/07/07 00:51:11;;;;;;;1107.15;999.90;;;;;;;18.12;43.74;101325.03;693470;28;47266;-64
2022/07/07 00:51:32;;;;;;;1106.88;999.90;;;;;;;18.14;43.92;101331.13;692738;28;69442;-62
2022/07/07 00:51:54;;;;;;;1109.57;999.90;;;;;;;18.14;43.86;101333.03;694338;28;21296;-64
2022/07/07 00:52:15;;;;;;;1111.38;999.90;;;;;;;18.14;43.81;101328.41;692859;28;46382;-64
2022/07/07 00:52:38;;;;;;;1111.97;999.90;;;;;;;18.15;43.81;101331.97;694387;28;24962;-62
2022/07/07 00:52:59;;;;;;;1111.73;999.90;;;;;;;18.15;44.17;101327.34;692439;28;68349;-63
2022/07/07 00:53:21;;;;;;;1110.20;999.90;;;;;;;18.17;44.14;101324.41;693424;28;46375;-64
2022/07/07 00:53:43;;;;;;;1110.57;999.90;;;;;;;18.16;44.06;101326.28;693241;28;45222;-64
2022/07/07 00:54:04;;;;;;;1109.18;999.90;;;;;;;18.18;43.82;101334.25;695552;28;21576;-63
2022/07/07 00:54:26;;;;;;;1108.45;999.90;;;;;;;18.18;43.79;101334.25;694267;28;22239;-63
2022/07/07 00:54:52;;;;;;;1107.20;999.90;;;;;;;18.16;44.01;101330.91;693171;28;69516;-64
2022/07/07 00:55:13;;;;;;;1112.50;999.90;;;;;;;18.16;44.12;101334.47;691181;28;114976;-62
2022/07/07 00:55:34;;;;;;;1114.43;999.90;;;;;;;18.15;43.81;101327.34;694078;28;22396;-63
2022/07/07 00:55:56;;;;;;;1114.05;999.90;;;;;;;18.16;43.90;101333.66;693351;28;46213;-64
2022/07/07 00:56:18;;;;;;;1116.38;999.90;;;;;;;18.15;44.01;101329.22;693418;28;21533;-63
2022/07/07 00:56:39;;;;;;;1111.50;999.90;;;;;;;18.12;43.93;101327.78;694040;28;45265;-64
2022/07/07 00:57:02;;;;;;;1108.70;999.90;;;;;;;18.13;44.16;101334.06;693592;28;22446;-64
2022/07/07 00:57:24;;;;;;;1112.72;999.90;;;;;;;18.12;44.18;101332.38;692520;28;68314;-64
2022/07/07 00:57:45;;;;;;;1114.00;999.90;;;;;;;18.12;43.91;101329.66;692738;28;45084;-64
2022/07/07 00:58:08;;;;;;;1107.17;999.90;;;;;;;18.12;44.23;101329.66;693149;28;46316;-64
2022/07/07 00:58:29;;;;;;;1108.50;999.90;;;;;;;18.12;44.00;101332.38;692754;28;69312;-64
2022/07/07 00:58:50;;;;;;;1113.93;999.90;;;;;;;18.12;44.11;101322.31;694299;28;23503;-64
2022/07/07 00:59:13;;;;;;;1113.05;999.90;;;;;;;18.12;44.17;101327.78;694254;28;21283;-65
2022/07/07 00:59:35;;;;;;;1114.72;999.90;;;;;;;18.14;44.13;101333.03;693772;28;69450;-64
2022/07/07 00:59:58;;;;;;;1115.90;999.90;;;;;;;18.11;44.20;101325.25;693511;28;46322;-65
2022/07/07 01:00:20;;;;;;;1115.35;999.90;;;;;;;18.11;44.06;101333.44;692589;28;69614;-65
2022/07/07 01:00:41;;;;;;;1113.38;999.90;;;;;;;18.11;44.05;101337.00;693633;28;44377;-65
2022/07/07 01:01:04;;;;;;;1116.57;999.90;;;;;;;18.06;43.98;101328.63;694216;28;22438;-65
2022/07/07 01:01:26;;;;;;;1116.25;999.90;;;;;;;18.09;44.02;101327.38;691527;28;69392;-64
2022/07/07 01:01:48;;;;;;;1117.03;999.90;;;;;;;18.07;44.36;101329.44;693386;28;44402;-64
2022/07/07 01:02:09;;;;;;;1114.35;999.90;;;;;;;18.09;44.15;101328.19;693059;28;46064;-64
2022/07/07 01:02:31;;;;;;;1110.10;999.90;;;;;;;18.09;44.29;101332.84;694012;28;22391;-64
2022/07/07 01:02:53;;;;;;;1112.22;999.90;;;;;;;18.07;44.27;101330.31;693697;28;45062;-64
2022/07/07 01:03:15;;;;;;;1113.30;999.90;;;;;;;18.05;44.01;101326.94;693252;28;44364;-64
2022/07/07 01:03:36;;;;;;;1114.18;999.90;;;;;;;18.07;44.15;101334.91;693405;28;46319;-64
2022/07/07 01:03:58;;;;;;;1115.88;999.90;;;;;;;18.04;44.06;101328.00;693628;28;21544;-64
2022/07/07 01:04:20;;;;;;;1110.85;999.90;;;;;;;18.06;44.20;101330.53;693259;28;47682;-64
2022/07/07 01:04:42;;;;;;;1114.13;999.90;;;;;;;18.07;44.33;101337.66;693987;28;23326;-64
2022/07/07 01:05:06;;;;;;;1114.25;999.90;;;;;;;18.06;44.17;101334.09;692594;28;70334;-65
2022/07/07 01:05:27;;;;;;;1110.88;999.90;;;;;;;18.05;44.24;101334.31;692690;28;66040;-64
2022/07/07 01:05:49;;;;;;;1109.45;999.90;;;;;;;18.05;44.44;101337.88;693303;28;45260;-64
2022/07/07 01:06:10;;;;;;;1112.22;999.90;;;;;;;18.04;44.13;101330.75;694081;28;22436;-64
2022/07/07 01:06:33;;;;;;;1113.65;999.90;;;;;;;18.04;44.37;101330.75;692205;28;46344;-65
2022/07/07 01:06:55;;;;;;;1108.47;999.90;;;;;;;18.03;44.65;101330.94;692891;28;46232;-64
2022/07/07 01:07:16;;;;;;;1113.03;999.90;;;;;;;18.03;44.18;101336.41;692395;28;67232;-64
2022/07/07 01:07:39;;;;;;;1113.30;999.90;;;;;;;18.03;44.28;101337.25;694220;28;21550;-64
2022/07/07 01:08:02;;;;;;;1111.00;999.90;;;;;;;18.04;44.27;101332.59;694125;28;45223;-64
2022/07/07 01:08:24;;;;;;;1113.18;999.90;;;;;;;18.04;44.30;101330.75;691569;28;92647;-64
2022/07/07 01:08:45;;;;;;;1113.93;999.90;;;;;;;18.05;44.55;101331.56;692942;28;22414;-64
2022/07/07 01:09:07;;;;;;;1112.05;999.90;;;;;;;18.04;44.21;101330.75;693263;28;45210;-64
2022/07/07 01:09:29;;;;;;;1109.75;999.90;;;;;;;18.06;44.13;101327.78;694138;28;21301;-63
2022/07/07 01:09:50;;;;;;;1111.63;999.90;;;;;;;18.06;44.56;101330.53;693552;28;44488;-64
2022/07/07 01:10:12;;;;;;;1112.18;999.90;;;;;;;18.06;44.37;101336.81;692918;28;45298;-64
2022/07/07 01:10:33;;;;;;;1111.60;999.90;;;;;;;18.07;44.34;101329.44;695487;28;21536;-63
2022/07/07 01:10:55;;;;;;;1112.03;999.90;;;;;;;18.07;44.46;101326.72;693834;28;22405;-64
2022/07/07 01:11:16;;;;;;;1115.40;999.90;;;;;;;18.08;44.26;101331.97;693108;28;46268;-64
2022/07/07 01:11:49;;;;;;;1110.40;999.90;;;;;;;18.08;44.33;101328.41;691820;28;43589;-64
2022/07/07 01:12:10;;;;;;;1108.25;999.90;;;;;;;18.06;44.31;101328.63;687448;28;137361;-64
2022/07/07 01:12:36;;;;;;;1113.70;999.90;;;;;;;18.06;44.14;101334.09;691175;28;23400;-64
2022/07/07 01:13:01;;;;;;;1107.82;999.90;;;;;;;18.06;44.31;101325.88;688466;28;136378;-65
2022/07/07 01:13:22;;;;;;;1111.20;999.90;;;;;;;18.09;44.66;101330.09;688161;28;115094;-64
2022/07/07 01:13:43;;;;;;;1109.95;999.90;;;;;;;18.11;44.45;101325.25;691704;28;21534;-65
2022/07/07 01:14:05;;;;;;;1116.35;999.90;;;;;;;18.14;44.27;101333.03;691566;28;21569;-64
2022/07/07 01:14:28;;;;;;;1111.32;999.90;;;;;;;18.13;44.39;101325.88;691249;28;26868;-64
2022/07/07 01:14:49;;;;;;;1111.68;999.90;;;;;;;18.14;44.31;101327.56;690458;28;46308;-64
2022/07/07 01:15:12;;;;;;;1109.93;999.90;;;;;;;18.15;44.38;101329.22;690772;28;46418;-64
2022/07/07 01:15:33;;;;;;;1111.68;999.90;;;;;;;18.15;44.22;101331.97;692022;28;44375;-65
2022/07/07 01:15:54;;;;;;;1112.07;999.90;;;;;;;18.15;44.48;101326.50;691729;28;22373;-64
2022/07/07 01:16:16;;;;;;;1111.50;999.90;;;;;;;18.16;44.21;101322.72;691185;28;23474;-64
2022/07/07 01:16:38;;;;;;;1114.47;999.90;;;;;;;18.15;44.55;101326.50;691044;28;88950;-65
2022/07/07 01:16:59;;;;;;;1109.03;999.90;;;;;;;18.16;44.34;101330.91;692878;28;45311;-63
2022/07/07 01:17:20;;;;;;;1109.95;999.90;;;;;;;18.16;44.16;101322.72;693430;28;23438;-64
2022/07/07 01:17:43;;;;;;;1112.45;999.90;;;;;;;18.17;44.52;101327.97;694096;28;21525;-64
2022/07/07 01:18:04;;;;;;;1112.50;999.90;;;;;;;18.14;44.36;101322.09;692229;28;69684;-65
2022/07/07 01:18:25;;;;;;;1111.97;999.90;;;;;;;18.16;44.24;101328.19;695151;28;22400;-64
2022/07/07 01:18:46;;;;;;;1111.60;999.90;;;;;;;18.15;44.27;101323.75;694341;28;22404;-64
2022/07/07 01:19:08;;;;;;;1113.70;999.90;;;;;;;18.16;44.45;101328.19;693854;28;21497;-64
2022/07/07 01:19:30;;;;;;;1111.30;999.90;;;;;;;18.15;44.06;101319.16;694263;28;22262;-64
2022/07/07 01:19:51;;;;;;;1108.93;999.90;;;;;;;18.09;44.48;101317.25;692782;28;69254;-64
2022/07/07 01:20:13;;;;;;;1105.18;999.90;;;;;;;18.17;44.05;101322.50;693906;28;21532;-64
2022/07/07 01:20:34;;;;;;;1105.63;999.90;;;;;;;18.16;44.19;101320.81;693302;28;44382;-64
2022/07/07 01:20:58;;;;;;;1109.28;999.90;;;;;;;18.10;44.08;101309.91;695189;28;23348;-64
2022/07/07 01:21:21;;;;;;;1105.75;999.90;;;;;;;18.18;44.45;101326.06;691078;28;92088;-63
2022/07/07 01:21:47;;;;;;;1105.15;999.90;;;;;;;18.15;44.10;101321.88;693025;28;69421;-64
2022/07/07 01:22:12;;;;;;;1108.95;999.90;;;;;;;18.18;44.25;101323.31;690219;28;115138;-64
2022/07/07 01:22:35;;;;;;;1105.85;999.90;;;;;;;18.18;44.16;101328.78;690397;28;114980;-63
2022/07/07 01:22:59;;;;;;;1109.72;999.90;;;;;;;18.17;44.35;101319.75;691618;28;92998;-63
2022/07/07 01:23:20;;;;;;;1109.20;999.90;;;;;;;18.15;44.21;101331.97;692225;28;69459;-64
2022/07/07 01:23:41;;;;;;;1104.28;999.90;;;;;;;18.13;44.31;101326.69;693613;28;45225;-63
2022/07/07 01:24:03;;;;;;;1104.75;999.90;;;;;;;18.15;44.45;101323.75;694044;28;22339;-64
2022/07/07 01:24:27;;;;;;;1107.25;999.90;;;;;;;18.16;44.45;101325.44;693008;28;44193;-64
2022/07/07 01:24:48;;;;;;;1103.40;999.90;;;;;;;18.15;44.13;101324.63;692746;28;69386;-64
2022/07/07 01:25:09;;;;;;;1103.35;999.90;;;;;;;18.17;44.21;101324.41;694170;28;21545;-64
2022/07/07 01:25:30;;;;;;;1111.10;999.90;;;;;;;18.19;44.30;101330.50;693537;28;43867;-64
2022/07/07 01:25:52;;;;;;;1116.95;999.90;;;;;;;18.18;44.16;101332.38;694371;28;21526;-64
2022/07/07 01:26:13;;;;;;;1114.65;999.90;;;;;;;18.20;44.52;101326.72;693491;28;46386;-64
2022/07/07 01:26:37;;;;;;;1116.05;999.90;;;;;;;18.19;44.39;101316.81;693479;28;23375;-64
2022/07/07 01:27:07;;;;;;;1102.18;999.90;;;;;;;18.22;44.46;101334.69;694879;28;14923;-64
2022/07/07 01:27:29;;;;;;;1096.55;999.90;;;;;;;18.21;44.43;101328.38;689818;28;137908;-64
2022/07/07 01:27:51;;;;;;;1082.40;999.90;;;;;;;18.18;44.19;101323.31;693593;28;45234;-64
2022/07/07 01:28:12;;;;;;;1089.68;999.90;;;;;;;18.21;44.24;101325.63;692662;28;45353;-64
2022/07/07 01:28:33;;;;;;;1105.30;999.90;;;;;;;18.21;44.32;101325.63;694148;28;21348;-64
2022/07/07 01:28:54;;;;;;;1099.60;999.90;;;;;;;18.21;44.47;101328.38;693680;28;46315;-64
2022/07/07 01:29:17;;;;;;;1106.25;999.90;;;;;;;18.20;44.32;101329.44;693566;28;44451;-64
2022/07/07 01:29:39;;;;;;;1109.90;999.90;;;;;;;18.19;44.42;101325.84;693563;28;46254;-64
2022/07/07 01:30:01;;;;;;;1114.32;999.90;;;;;;;18.21;44.44;101325.63;692582;28;70196;-65
2022/07/07 01:30:22;;;;;;;1118.32;999.90;;;;;;;18.22;44.23;101321.88;694322;28;22389;-64
2022/07/07 01:30:44;;;;;;;1122.95;999.90;;;;;;;18.18;44.81;101324.19;694234;28;22478;-64
2022/07/07 01:31:05;;;;;;;1109.93;999.90;;;;;;;18.18;44.62;101323.31;694030;28;44381;-64
2022/07/07 01:31:27;;;;;;;1107.22;999.90;;;;;;;18.22;44.75;101331.97;692540;28;44225;-63
2022/07/07 01:31:48;;;;;;;1115.22;999.90;;;;;;;18.22;44.63;101332.78;693478;28;46414;-64
2022/07/07 01:32:09;;;;;;;1116.57;999.90;;;;;;;18.22;44.48;101324.59;693681;28;23269;-64
2022/07/07 01:32:31;;;;;;;1118.35;999.90;;;;;;;18.22;44.63;101321.03;694257;28;22413;-64
2022/07/07 01:32:53;;;;;;;1114.57;999.90;;;;;;;18.24;44.46;101325.22;693653;28;47741;-64
2022/07/07 01:33:15;;;;;;;1114.45;999.90;;;;;;;18.23;44.57;101329.03;693529;28;46335;-64
2022/07/07 01:33:36;;;;;;;1114.22;999.90;;;;;;;18.24;44.59;101335.31;694160;28;44520;-64
2022/07/07 01:33:57;;;;;;;1116.43;999.90;;;;;;;18.22;44.72;101332.78;694273;28;22439;-64
2022/07/07 01:34:19;;;;;;;1115.40;999.90;;;;;;;18.22;45.04;101329.22;693965;28;22417;-64
2022/07/07 01:34:42;;;;;;;1112.05;999.90;;;;;;;18.18;44.81;101324.19;693838;28;44135;-64
2022/07/07 01:35:04;;;;;;;1111.47;999.90;;;;;;;18.17;44.62;101324.41;692177;28;66214;-64
2022/07/07 01:35:27;;;;;;;1107.72;999.90;;;;;;;18.21;44.76;101324.81;693178;28;46155;-64
2022/07/07 01:35:48;;;;;;;1103.78;999.90;;;;;;;18.19;45.03;101328.59;693759;28;44244;-64
2022/07/07 01:36:12;;;;;;;1089.38;999.90;;;;;;;18.19;44.94;101328.59;693664;28;23482;-64
2022/07/07 01:36:33;;;;;;;1087.40;999.90;;;;;;;18.19;44.80;101328.59;689702;28;113499;-65
2022/07/07 01:36:54;;;;;;;1081.65;999.90;;;;;;;18.20;45.21;101329.44;694286;28;45224;-64
2022/07/07 01:37:17;;;;;;;1075.85;999.90;;;;;;;18.18;45.18;101335.13;693633;28;22390;-64
2022/07/07 01:37:38;;;;;;;1090.43;999.90;;;;;;;18.18;44.94;101329.66;692123;28;69409;-64